sensor_id;sensor_type;location;lat;lon;timestamp;P1;durP1;ratioP1;P2;durP2;ratioP2
44430;SDS011;30135;47.866;-4.222;2023-10-09T00:01:51;9.95;;;2.15;;
44430;SDS011;30135;47.866;-4.222;2023-10-09T00:04:18;8.98;;;2.38;;
44430;SDS011;30135;47.866;-4.222;2023-10-09T00:06:45;8.55;;;2.80;;
44430;SDS011;30135;47.866;-4.222;2023-10-09T00:09:11;7.50;;;2.92;;
44430;SDS011;30135;47.866;-4.222;2023-10-09T00:11:50;6.53;;;2.25;;
44430;SDS011;30135;47.866;-4.222;2023-10-09T00:14:24;7.82;;;2.88;;
44430;SDS011;30135;47.866;-4.222;2023-10-09T00:16:52;8.57;;;2.80;;
44430;SDS011;30135;47.866;-4.222;2023-10-09T00:19:27;10.10;;;3.80;;
44430;SDS011;30135;47.866;-4.222;2023-10-09T00:21:57;13.57;;;3.53;;
44430;SDS011;30135;47.866;-4.222;2023-10-09T00:24:31;11.63;;;3.63;;
44430;SDS011;30135;47.866;-4.222;2023-10-09T00:26:58;11.63;;;4.63;;
44430;SDS011;30135;47.866;-4.222;2023-10-09T00:29:37;12.60;;;4.97;;
44430;SDS011;30135;47.866;-4.222;2023-10-09T00:32:13;13.93;;;4.82;;
44430;SDS011;30135;47.866;-4.222;2023-10-09T00:34:52;14.80;;;4.93;;
44430;SDS011;30135;47.866;-4.222;2023-10-09T00:37:23;19.83;;;5.43;;
44430;SDS011;30135;47.866;-4.222;2023-10-09T00:39:51;14.65;;;4.60;;
44430;SDS011;30135;47.866;-4.222;2023-10-09T00:42:22;14.55;;;4.53;;
44430;SDS011;30135;47.866;-4.222;2023-10-09T00:44:58;13.95;;;4.40;;
44430;SDS011;30135;47.866;-4.222;2023-10-09T00:47:34;10.93;;;3.88;;
44430;SDS011;30135;47.866;-4.222;2023-10-09T00:50:08;13.43;;;3.55;;
44430;SDS011;30135;47.866;-4.222;2023-10-09T00:52:42;17.73;;;5.57;;
44430;SDS011;30135;47.866;-4.222;2023-10-09T00:55:26;11.50;;;3.80;;
44430;SDS011;30135;47.866;-4.222;2023-10-09T00:58:03;14.73;;;4.03;;
44430;SDS011;30135;47.866;-4.222;2023-10-09T01:00:37;12.02;;;5.05;;
44430;SDS011;30135;47.866;-4.222;2023-10-09T01:05:51;11.30;;;3.25;;
44430;SDS011;30135;47.866;-4.222;2023-10-09T01:08:37;13.02;;;3.30;;
44430;SDS011;30135;47.866;-4.222;2023-10-09T01:11:05;11.93;;;3.55;;
44430;SDS011;30135;47.866;-4.222;2023-10-09T01:13:55;12.48;;;4.00;;
44430;SDS011;30135;47.866;-4.222;2023-10-09T01:16:41;8.93;;;3.42;;
44430;SDS011;30135;47.866;-4.222;2023-10-09T01:19:09;11.63;;;3.88;;
44430;SDS011;30135;47.866;-4.222;2023-10-09T01:21:44;8.23;;;3.25;;
44430;SDS011;30135;47.866;-4.222;2023-10-09T01:24:11;11.20;;;3.03;;
44430;SDS011;30135;47.866;-4.222;2023-10-09T01:26:40;8.30;;;3.47;;
44430;SDS011;30135;47.866;-4.222;2023-10-09T01:29:15;8.40;;;3.58;;
44430;SDS011;30135;47.866;-4.222;2023-10-09T01:31:48;12.65;;;3.13;;
44430;SDS011;30135;47.866;-4.222;2023-10-09T01:34:17;8.02;;;2.45;;
44430;SDS011;30135;47.866;-4.222;2023-10-09T01:36:44;8.07;;;3.60;;
44430;SDS011;30135;47.866;-4.222;2023-10-09T01:39:14;7.97;;;4.18;;
44430;SDS011;30135;47.866;-4.222;2023-10-09T01:41:51;10.93;;;3.35;;
44430;SDS011;30135;47.866;-4.222;2023-10-09T01:44:29;18.85;;;5.03;;
44430;SDS011;30135;47.866;-4.222;2023-10-09T01:47:08;9.80;;;3.70;;
44430;SDS011;30135;47.866;-4.222;2023-10-09T01:49:39;18.95;;;4.35;;
44430;SDS011;30135;47.866;-4.222;2023-10-09T01:52:12;10.75;;;3.58;;
44430;SDS011;30135;47.866;-4.222;2023-10-09T01:54:41;9.57;;;3.83;;
44430;SDS011;30135;47.866;-4.222;2023-10-09T01:57:13;11.88;;;4.50;;
44430;SDS011;30135;47.866;-4.222;2023-10-09T01:59:47;11.70;;;4.45;;
44430;SDS011;30135;47.866;-4.222;2023-10-09T02:02:17;12.57;;;4.38;;
44430;SDS011;30135;47.866;-4.222;2023-10-09T02:07:50;14.77;;;3.92;;
44430;SDS011;30135;47.866;-4.222;2023-10-09T02:10:23;8.00;;;3.05;;
44430;SDS011;30135;47.866;-4.222;2023-10-09T02:12:50;11.77;;;3.38;;
44430;SDS011;30135;47.866;-4.222;2023-10-09T02:15:25;12.82;;;3.75;;
44430;SDS011;30135;47.866;-4.222;2023-10-09T02:18:17;9.50;;;3.47;;
44430;SDS011;30135;47.866;-4.222;2023-10-09T02:20:48;10.68;;;3.38;;
44430;SDS011;30135;47.866;-4.222;2023-10-09T02:23:37;9.35;;;3.50;;
44430;SDS011;30135;47.866;-4.222;2023-10-09T02:26:05;9.70;;;4.13;;
44430;SDS011;30135;47.866;-4.222;2023-10-09T02:28:33;13.95;;;4.47;;
44430;SDS011;30135;47.866;-4.222;2023-10-09T02:31:09;14.15;;;4.88;;
44430;SDS011;30135;47.866;-4.222;2023-10-09T02:33:37;9.45;;;3.80;;
44430;SDS011;30135;47.866;-4.222;2023-10-09T02:36:06;10.10;;;3.25;;
44430;SDS011;30135;47.866;-4.222;2023-10-09T02:38:33;9.18;;;3.47;;
44430;SDS011;30135;47.866;-4.222;2023-10-09T02:41:06;13.85;;;4.05;;
44430;SDS011;30135;47.866;-4.222;2023-10-09T02:43:38;12.68;;;4.00;;
44430;SDS011;30135;47.866;-4.222;2023-10-09T02:46:14;9.55;;;3.90;;
44430;SDS011;30135;47.866;-4.222;2023-10-09T02:48:44;10.63;;;3.55;;
44430;SDS011;30135;47.866;-4.222;2023-10-09T02:51:18;11.90;;;4.43;;
44430;SDS011;30135;47.866;-4.222;2023-10-09T02:53:51;10.82;;;3.60;;
44430;SDS011;30135;47.866;-4.222;2023-10-09T02:56:28;14.95;;;5.07;;
44430;SDS011;30135;47.866;-4.222;2023-10-09T02:59:15;18.08;;;5.15;;
44430;SDS011;30135;47.866;-4.222;2023-10-09T03:01:41;10.90;;;4.13;;
44430;SDS011;30135;47.866;-4.222;2023-10-09T03:04:07;11.48;;;3.22;;
44430;SDS011;30135;47.866;-4.222;2023-10-09T03:06:36;14.27;;;3.37;;
44430;SDS011;30135;47.866;-4.222;2023-10-09T03:09:11;9.00;;;3.20;;
44430;SDS011;30135;47.866;-4.222;2023-10-09T03:11:43;16.73;;;3.95;;
44430;SDS011;30135;47.866;-4.222;2023-10-09T03:14:18;8.35;;;3.72;;
44430;SDS011;30135;47.866;-4.222;2023-10-09T03:16:46;7.80;;;2.30;;
44430;SDS011;30135;47.866;-4.222;2023-10-09T03:19:15;11.93;;;4.63;;
44430;SDS011;30135;47.866;-4.222;2023-10-09T03:21:42;10.77;;;2.60;;
44430;SDS011;30135;47.866;-4.222;2023-10-09T03:24:08;10.00;;;3.20;;
44430;SDS011;30135;47.866;-4.222;2023-10-09T03:26:36;8.45;;;2.63;;
44430;SDS011;30135;47.866;-4.222;2023-10-09T03:29:02;7.78;;;2.63;;
44430;SDS011;30135;47.866;-4.222;2023-10-09T03:31:35;10.43;;;2.78;;
44430;SDS011;30135;47.866;-4.222;2023-10-09T03:34:03;10.23;;;3.05;;
44430;SDS011;30135;47.866;-4.222;2023-10-09T03:36:35;7.93;;;2.92;;
44430;SDS011;30135;47.866;-4.222;2023-10-09T03:39:04;5.03;;;2.88;;
44430;SDS011;30135;47.866;-4.222;2023-10-09T03:41:50;7.78;;;2.65;;
44430;SDS011;30135;47.866;-4.222;2023-10-09T03:44:19;18.98;;;3.20;;
44430;SDS011;30135;47.866;-4.222;2023-10-09T03:46:45;11.88;;;4.60;;
44430;SDS011;30135;47.866;-4.222;2023-10-09T03:49:11;10.15;;;3.15;;
44430;SDS011;30135;47.866;-4.222;2023-10-09T03:51:38;13.07;;;4.38;;
44430;SDS011;30135;47.866;-4.222;2023-10-09T03:54:05;10.60;;;3.85;;
44430;SDS011;30135;47.866;-4.222;2023-10-09T03:56:34;14.48;;;4.63;;
44430;SDS011;30135;47.866;-4.222;2023-10-09T03:59:00;10.65;;;4.30;;
44430;SDS011;30135;47.866;-4.222;2023-10-09T04:01:29;14.77;;;4.55;;
44430;SDS011;30135;47.866;-4.222;2023-10-09T04:04:02;13.48;;;4.00;;
44430;SDS011;30135;47.866;-4.222;2023-10-09T04:06:31;17.97;;;4.07;;
44430;SDS011;30135;47.866;-4.222;2023-10-09T04:11:40;9.32;;;3.08;;
44430;SDS011;30135;47.866;-4.222;2023-10-09T04:14:14;15.57;;;4.50;;
44430;SDS011;30135;47.866;-4.222;2023-10-09T04:16:52;12.35;;;3.88;;
44430;SDS011;30135;47.866;-4.222;2023-10-09T04:19:54;13.57;;;3.55;;
44430;SDS011;30135;47.866;-4.222;2023-10-09T04:22:39;11.98;;;4.45;;
44430;SDS011;30135;47.866;-4.222;2023-10-09T04:25:21;12.05;;;4.13;;
44430;SDS011;30135;47.866;-4.222;2023-10-09T04:27:59;17.42;;;4.10;;
44430;SDS011;30135;47.866;-4.222;2023-10-09T04:30:38;17.65;;;3.95;;
44430;SDS011;30135;47.866;-4.222;2023-10-09T04:33:24;13.50;;;3.93;;
44430;SDS011;30135;47.866;-4.222;2023-10-09T04:38:44;11.13;;;3.42;;
44430;SDS011;30135;47.866;-4.222;2023-10-09T04:41:32;8.65;;;2.83;;
44430;SDS011;30135;47.866;-4.222;2023-10-09T04:44:07;12.77;;;3.95;;
44430;SDS011;30135;47.866;-4.222;2023-10-09T04:46:55;13.85;;;2.92;;
44430;SDS011;30135;47.866;-4.222;2023-10-09T04:49:40;17.45;;;3.80;;
44430;SDS011;30135;47.866;-4.222;2023-10-09T04:52:29;8.35;;;2.47;;
44430;SDS011;30135;47.866;-4.222;2023-10-09T04:54:55;5.60;;;2.85;;
44430;SDS011;30135;47.866;-4.222;2023-10-09T04:57:41;7.35;;;3.35;;
44430;SDS011;30135;47.866;-4.222;2023-10-09T05:00:12;9.57;;;3.85;;
44430;SDS011;30135;47.866;-4.222;2023-10-09T05:05:25;11.32;;;3.72;;
44430;SDS011;30135;47.866;-4.222;2023-10-09T05:08:08;6.55;;;2.97;;
44430;SDS011;30135;47.866;-4.222;2023-10-09T05:10:44;14.25;;;2.55;;
44430;SDS011;30135;47.866;-4.222;2023-10-09T05:13:31;9.68;;;2.95;;
44430;SDS011;30135;47.866;-4.222;2023-10-09T05:16:11;9.70;;;2.55;;
44430;SDS011;30135;47.866;-4.222;2023-10-09T05:18:52;18.05;;;3.00;;
44430;SDS011;30135;47.866;-4.222;2023-10-09T05:21:40;11.85;;;3.28;;
44430;SDS011;30135;47.866;-4.222;2023-10-09T05:24:09;13.10;;;3.92;;
44430;SDS011;30135;47.866;-4.222;2023-10-09T05:26:39;10.40;;;3.58;;
44430;SDS011;30135;47.866;-4.222;2023-10-09T05:29:12;13.85;;;2.85;;
44430;SDS011;30135;47.866;-4.222;2023-10-09T05:31:58;19.08;;;4.93;;
44430;SDS011;30135;47.866;-4.222;2023-10-09T05:34:29;16.08;;;4.70;;
44430;SDS011;30135;47.866;-4.222;2023-10-09T05:37:00;10.95;;;2.65;;
44430;SDS011;30135;47.866;-4.222;2023-10-09T05:39:45;7.03;;;2.53;;
44430;SDS011;30135;47.866;-4.222;2023-10-09T05:42:35;11.95;;;3.95;;
44430;SDS011;30135;47.866;-4.222;2023-10-09T05:45:04;15.30;;;3.30;;
44430;SDS011;30135;47.866;-4.222;2023-10-09T05:47:51;9.65;;;2.67;;
44430;SDS011;30135;47.866;-4.222;2023-10-09T05:50:22;11.02;;;2.55;;
44430;SDS011;30135;47.866;-4.222;2023-10-09T05:52:53;20.45;;;3.20;;
44430;SDS011;30135;47.866;-4.222;2023-10-09T05:55:42;11.95;;;3.50;;
44430;SDS011;30135;47.866;-4.222;2023-10-09T05:58:26;7.38;;;2.97;;
44430;SDS011;30135;47.866;-4.222;2023-10-09T06:01:28;9.93;;;2.50;;
44430;SDS011;30135;47.866;-4.222;2023-10-09T06:04:12;11.00;;;3.47;;
44430;SDS011;30135;47.866;-4.222;2023-10-09T06:06:44;6.53;;;3.00;;
44430;SDS011;30135;47.866;-4.222;2023-10-09T06:09:13;9.93;;;3.47;;
44430;SDS011;30135;47.866;-4.222;2023-10-09T06:11:41;6.38;;;2.47;;
44430;SDS011;30135;47.866;-4.222;2023-10-09T06:14:17;11.85;;;2.92;;
44430;SDS011;30135;47.866;-4.222;2023-10-09T06:17:14;10.57;;;3.03;;
44430;SDS011;30135;47.866;-4.222;2023-10-09T06:19:48;9.45;;;3.15;;
44430;SDS011;30135;47.866;-4.222;2023-10-09T06:22:21;15.05;;;3.45;;
44430;SDS011;30135;47.866;-4.222;2023-10-09T06:25:15;16.88;;;4.22;;
44430;SDS011;30135;47.866;-4.222;2023-10-09T06:27:43;13.60;;;4.13;;
44430;SDS011;30135;47.866;-4.222;2023-10-09T06:30:22;12.40;;;3.80;;
44430;SDS011;30135;47.866;-4.222;2023-10-09T06:35:33;17.58;;;3.35;;
44430;SDS011;30135;47.866;-4.222;2023-10-09T06:38:01;19.08;;;3.47;;
44430;SDS011;30135;47.866;-4.222;2023-10-09T06:40:35;9.88;;;3.10;;
44430;SDS011;30135;47.866;-4.222;2023-10-09T06:43:16;13.60;;;3.58;;
44430;SDS011;30135;47.866;-4.222;2023-10-09T06:45:50;6.90;;;3.55;;
44430;SDS011;30135;47.866;-4.222;2023-10-09T06:48:25;18.20;;;3.92;;
44430;SDS011;30135;47.866;-4.222;2023-10-09T06:51:08;11.38;;;2.80;;
44430;SDS011;30135;47.866;-4.222;2023-10-09T06:54:00;8.35;;;2.92;;
44430;SDS011;30135;47.866;-4.222;2023-10-09T06:56:43;7.88;;;3.63;;
44430;SDS011;30135;47.866;-4.222;2023-10-09T06:59:18;6.43;;;2.50;;
44430;SDS011;30135;47.866;-4.222;2023-10-09T07:01:50;11.68;;;3.47;;
44430;SDS011;30135;47.866;-4.222;2023-10-09T07:04:35;10.20;;;3.30;;
44430;SDS011;30135;47.866;-4.222;2023-10-09T07:07:02;8.05;;;3.03;;
44430;SDS011;30135;47.866;-4.222;2023-10-09T07:09:46;9.20;;;2.65;;
44430;SDS011;30135;47.866;-4.222;2023-10-09T07:12:34;14.90;;;3.50;;
44430;SDS011;30135;47.866;-4.222;2023-10-09T07:15:07;16.27;;;3.92;;
44430;SDS011;30135;47.866;-4.222;2023-10-09T07:17:34;13.00;;;3.45;;
44430;SDS011;30135;47.866;-4.222;2023-10-09T07:20:00;12.77;;;3.45;;
44430;SDS011;30135;47.866;-4.222;2023-10-09T07:22:39;19.97;;;4.63;;
44430;SDS011;30135;47.866;-4.222;2023-10-09T07:25:26;18.00;;;3.05;;
44430;SDS011;30135;47.866;-4.222;2023-10-09T07:28:05;9.75;;;2.45;;
44430;SDS011;30135;47.866;-4.222;2023-10-09T07:30:55;10.57;;;3.10;;
44430;SDS011;30135;47.866;-4.222;2023-10-09T07:33:23;18.17;;;4.05;;
44430;SDS011;30135;47.866;-4.222;2023-10-09T07:36:08;7.40;;;2.63;;
44430;SDS011;30135;47.866;-4.222;2023-10-09T07:38:37;8.32;;;2.65;;
44430;SDS011;30135;47.866;-4.222;2023-10-09T07:41:03;15.50;;;3.45;;
44430;SDS011;30135;47.866;-4.222;2023-10-09T07:43:31;17.35;;;3.10;;
44430;SDS011;30135;47.866;-4.222;2023-10-09T07:46:08;10.48;;;3.75;;
44430;SDS011;30135;47.866;-4.222;2023-10-09T07:48:35;7.68;;;2.60;;
44430;SDS011;30135;47.866;-4.222;2023-10-09T07:51:14;10.48;;;2.88;;
44430;SDS011;30135;47.866;-4.222;2023-10-09T07:53:41;10.07;;;3.35;;
44430;SDS011;30135;47.866;-4.222;2023-10-09T07:56:11;13.53;;;4.17;;
44430;SDS011;30135;47.866;-4.222;2023-10-09T07:58:46;6.43;;;3.15;;
44430;SDS011;30135;47.866;-4.222;2023-10-09T08:01:15;13.05;;;2.50;;
44430;SDS011;30135;47.866;-4.222;2023-10-09T08:03:47;13.25;;;2.95;;
44430;SDS011;30135;47.866;-4.222;2023-10-09T08:06:22;11.10;;;2.92;;
44430;SDS011;30135;47.866;-4.222;2023-10-09T08:09:08;8.70;;;2.92;;
44430;SDS011;30135;47.866;-4.222;2023-10-09T08:11:38;5.10;;;2.15;;
44430;SDS011;30135;47.866;-4.222;2023-10-09T08:14:05;9.23;;;2.95;;
44430;SDS011;30135;47.866;-4.222;2023-10-09T08:16:53;8.10;;;2.63;;
44430;SDS011;30135;47.866;-4.222;2023-10-09T08:19:38;8.35;;;2.88;;
44430;SDS011;30135;47.866;-4.222;2023-10-09T08:22:21;7.50;;;2.85;;
44430;SDS011;30135;47.866;-4.222;2023-10-09T08:24:54;5.70;;;2.22;;
44430;SDS011;30135;47.866;-4.222;2023-10-09T08:30:00;7.97;;;2.58;;
44430;SDS011;30135;47.866;-4.222;2023-10-09T08:32:47;13.27;;;2.63;;
44430;SDS011;30135;47.866;-4.222;2023-10-09T08:35:27;6.18;;;2.53;;
44430;SDS011;30135;47.866;-4.222;2023-10-09T08:38:11;6.32;;;2.42;;
44430;SDS011;30135;47.866;-4.222;2023-10-09T08:40:38;6.93;;;2.47;;
44430;SDS011;30135;47.866;-4.222;2023-10-09T08:43:16;5.22;;;2.50;;
44430;SDS011;30135;47.866;-4.222;2023-10-09T08:45:48;8.88;;;2.22;;
44430;SDS011;30135;47.866;-4.222;2023-10-09T08:48:27;22.02;;;2.35;;
44430;SDS011;30135;47.866;-4.222;2023-10-09T08:50:55;18.42;;;3.42;;
44430;SDS011;30135;47.866;-4.222;2023-10-09T08:53:22;6.47;;;2.60;;
44430;SDS011;30135;47.866;-4.222;2023-10-09T08:55:49;3.60;;;1.67;;
44430;SDS011;30135;47.866;-4.222;2023-10-09T08:58:20;8.43;;;2.40;;
44430;SDS011;30135;47.866;-4.222;2023-10-09T09:01:00;7.82;;;3.28;;
44430;SDS011;30135;47.866;-4.222;2023-10-09T09:03:26;10.02;;;2.10;;
44430;SDS011;30135;47.866;-4.222;2023-10-09T09:06:03;9.27;;;1.75;;
44430;SDS011;30135;47.866;-4.222;2023-10-09T09:08:37;6.43;;;1.88;;
44430;SDS011;30135;47.866;-4.222;2023-10-09T09:14:01;8.93;;;1.30;;
44430;SDS011;30135;47.866;-4.222;2023-10-09T09:16:40;6.40;;;1.85;;
44430;SDS011;30135;47.866;-4.222;2023-10-09T09:19:13;8.00;;;2.85;;
44430;SDS011;30135;47.866;-4.222;2023-10-09T09:24:14;9.82;;;3.53;;
44430;SDS011;30135;47.866;-4.222;2023-10-09T09:26:46;11.10;;;2.85;;
44430;SDS011;30135;47.866;-4.222;2023-10-09T09:29:24;8.50;;;3.15;;
44430;SDS011;30135;47.866;-4.222;2023-10-09T09:32:06;3.70;;;1.83;;
44430;SDS011;30135;47.866;-4.222;2023-10-09T09:37:20;3.72;;;2.20;;
44430;SDS011;30135;47.866;-4.222;2023-10-09T09:39:58;4.32;;;2.30;;
44430;SDS011;30135;47.866;-4.222;2023-10-09T09:42:27;4.32;;;1.50;;
44430;SDS011;30135;47.866;-4.222;2023-10-09T09:44:56;6.28;;;1.98;;
44430;SDS011;30135;47.866;-4.222;2023-10-09T09:47:26;5.85;;;1.92;;
44430;SDS011;30135;47.866;-4.222;2023-10-09T09:49:53;6.28;;;1.67;;
44430;SDS011;30135;47.866;-4.222;2023-10-09T09:52:28;6.45;;;1.63;;
44430;SDS011;30135;47.866;-4.222;2023-10-09T09:55:03;13.45;;;1.85;;
44430;SDS011;30135;47.866;-4.222;2023-10-09T09:57:45;6.95;;;2.35;;
44430;SDS011;30135;47.866;-4.222;2023-10-09T10:00:21;5.07;;;1.75;;
44430;SDS011;30135;47.866;-4.222;2023-10-09T10:03:01;7.00;;;1.92;;
44430;SDS011;30135;47.866;-4.222;2023-10-09T10:05:33;7.43;;;2.17;;
44430;SDS011;30135;47.866;-4.222;2023-10-09T10:07:59;5.90;;;2.13;;
44430;SDS011;30135;47.866;-4.222;2023-10-09T10:10:33;5.03;;;2.00;;
44430;SDS011;30135;47.866;-4.222;2023-10-09T10:13:12;5.50;;;2.35;;
44430;SDS011;30135;47.866;-4.222;2023-10-09T10:15:59;12.77;;;2.40;;
44430;SDS011;30135;47.866;-4.222;2023-10-09T10:18:56;7.50;;;2.03;;
44430;SDS011;30135;47.866;-4.222;2023-10-09T10:21:35;5.22;;;1.33;;
44430;SDS011;30135;47.866;-4.222;2023-10-09T10:24:04;4.05;;;1.52;;
44430;SDS011;30135;47.866;-4.222;2023-10-09T10:29:46;11.07;;;2.10;;
44430;SDS011;30135;47.866;-4.222;2023-10-09T10:32:15;6.70;;;2.30;;
44430;SDS011;30135;47.866;-4.222;2023-10-09T10:37:42;6.93;;;2.08;;
44430;SDS011;30135;47.866;-4.222;2023-10-09T10:40:24;12.70;;;1.92;;
44430;SDS011;30135;47.866;-4.222;2023-10-09T10:43:04;8.63;;;2.10;;
44430;SDS011;30135;47.866;-4.222;2023-10-09T10:46:05;7.70;;;2.03;;
44430;SDS011;30135;47.866;-4.222;2023-10-09T10:48:52;4.75;;;1.55;;
44430;SDS011;30135;47.866;-4.222;2023-10-09T10:51:25;6.32;;;1.70;;
44430;SDS011;30135;47.866;-4.222;2023-10-09T10:54:24;8.25;;;1.73;;
44430;SDS011;30135;47.866;-4.222;2023-10-09T10:56:53;4.10;;;1.75;;
44430;SDS011;30135;47.866;-4.222;2023-10-09T10:59:23;8.07;;;1.73;;
44430;SDS011;30135;47.866;-4.222;2023-10-09T11:01:52;6.33;;;1.97;;
44430;SDS011;30135;47.866;-4.222;2023-10-09T11:04:28;10.57;;;1.83;;
44430;SDS011;30135;47.866;-4.222;2023-10-09T11:06:57;4.25;;;1.52;;
44430;SDS011;30135;47.866;-4.222;2023-10-09T11:09:53;6.45;;;1.63;;
44430;SDS011;30135;47.866;-4.222;2023-10-09T11:12:27;6.10;;;1.48;;
44430;SDS011;30135;47.866;-4.222;2023-10-09T11:15:33;4.88;;;1.48;;
44430;SDS011;30135;47.866;-4.222;2023-10-09T11:18:10;2.72;;;1.10;;
44430;SDS011;30135;47.866;-4.222;2023-10-09T11:20:44;9.48;;;1.75;;
44430;SDS011;30135;47.866;-4.222;2023-10-09T11:23:30;3.85;;;1.35;;
44430;SDS011;30135;47.866;-4.222;2023-10-09T11:26:03;2.63;;;1.13;;
44430;SDS011;30135;47.866;-4.222;2023-10-09T11:28:46;4.53;;;1.98;;
44430;SDS011;30135;47.866;-4.222;2023-10-09T11:34:26;5.38;;;1.83;;
44430;SDS011;30135;47.866;-4.222;2023-10-09T11:37:01;5.25;;;1.50;;
44430;SDS011;30135;47.866;-4.222;2023-10-09T11:39:37;8.02;;;2.17;;
44430;SDS011;30135;47.866;-4.222;2023-10-09T11:42:21;8.68;;;2.00;;
44430;SDS011;30135;47.866;-4.222;2023-10-09T11:45:20;5.53;;;1.10;;
44430;SDS011;30135;47.866;-4.222;2023-10-09T11:47:50;4.13;;;1.27;;
44430;SDS011;30135;47.866;-4.222;2023-10-09T11:50:43;12.75;;;2.35;;
44430;SDS011;30135;47.866;-4.222;2023-10-09T11:53:17;14.00;;;1.70;;
44430;SDS011;30135;47.866;-4.222;2023-10-09T11:56:05;4.57;;;1.90;;
44430;SDS011;30135;47.866;-4.222;2023-10-09T11:58:34;4.85;;;1.42;;
44430;SDS011;30135;47.866;-4.222;2023-10-09T12:01:10;5.93;;;1.35;;
44430;SDS011;30135;47.866;-4.222;2023-10-09T12:03:45;7.22;;;1.77;;
44430;SDS011;30135;47.866;-4.222;2023-10-09T12:08:57;3.42;;;1.25;;
44430;SDS011;30135;47.866;-4.222;2023-10-09T12:11:23;4.10;;;1.65;;
44430;SDS011;30135;47.866;-4.222;2023-10-09T12:13:56;5.35;;;1.50;;
44430;SDS011;30135;47.866;-4.222;2023-10-09T12:16:23;4.63;;;1.83;;
44430;SDS011;30135;47.866;-4.222;2023-10-09T12:18:53;5.97;;;1.50;;
44430;SDS011;30135;47.866;-4.222;2023-10-09T12:21:20;4.80;;;1.60;;
44430;SDS011;30135;47.866;-4.222;2023-10-09T12:23:46;5.32;;;1.60;;
44430;SDS011;30135;47.866;-4.222;2023-10-09T12:26:12;6.93;;;1.42;;
44430;SDS011;30135;47.866;-4.222;2023-10-09T12:31:14;6.10;;;1.52;;
44430;SDS011;30135;47.866;-4.222;2023-10-09T12:33:45;3.20;;;1.10;;
44430;SDS011;30135;47.866;-4.222;2023-10-09T12:36:12;6.85;;;2.38;;
44430;SDS011;30135;47.866;-4.222;2023-10-09T12:38:45;10.15;;;1.92;;
44430;SDS011;30135;47.866;-4.222;2023-10-09T12:41:24;5.68;;;1.60;;
44430;SDS011;30135;47.866;-4.222;2023-10-09T12:46:20;7.57;;;1.85;;
44430;SDS011;30135;47.866;-4.222;2023-10-09T12:48:51;5.22;;;1.65;;
44430;SDS011;30135;47.866;-4.222;2023-10-09T12:51:19;5.90;;;1.57;;
44430;SDS011;30135;47.866;-4.222;2023-10-09T12:53:54;3.70;;;1.30;;
44430;SDS011;30135;47.866;-4.222;2023-10-09T12:56:26;6.30;;;1.45;;
44430;SDS011;30135;47.866;-4.222;2023-10-09T12:58:59;7.35;;;1.55;;
44430;SDS011;30135;47.866;-4.222;2023-10-09T13:01:27;4.85;;;1.40;;
44430;SDS011;30135;47.866;-4.222;2023-10-09T13:04:08;14.93;;;1.92;;
44430;SDS011;30135;47.866;-4.222;2023-10-09T13:06:40;3.97;;;1.98;;
44430;SDS011;30135;47.866;-4.222;2023-10-09T13:11:38;11.25;;;3.47;;
44430;SDS011;30135;47.866;-4.222;2023-10-09T13:14:09;8.32;;;2.00;;
44430;SDS011;30135;47.866;-4.222;2023-10-09T13:16:48;9.27;;;1.98;;
44430;SDS011;30135;47.866;-4.222;2023-10-09T13:21:44;5.90;;;2.28;;
44430;SDS011;30135;47.866;-4.222;2023-10-09T13:24:11;13.15;;;2.10;;
44430;SDS011;30135;47.866;-4.222;2023-10-09T13:26:45;11.50;;;1.98;;
44430;SDS011;30135;47.866;-4.222;2023-10-09T13:29:16;7.60;;;1.98;;
44430;SDS011;30135;47.866;-4.222;2023-10-09T13:31:48;9.20;;;1.73;;
44430;SDS011;30135;47.866;-4.222;2023-10-09T13:34:17;4.35;;;1.88;;
44430;SDS011;30135;47.866;-4.222;2023-10-09T13:36:44;5.07;;;1.58;;
44430;SDS011;30135;47.866;-4.222;2023-10-09T13:39:18;5.18;;;2.13;;
44430;SDS011;30135;47.866;-4.222;2023-10-09T13:44:29;9.02;;;2.85;;
44430;SDS011;30135;47.866;-4.222;2023-10-09T13:47:07;8.38;;;1.50;;
44430;SDS011;30135;47.866;-4.222;2023-10-09T13:49:44;6.22;;;1.52;;
44430;SDS011;30135;47.866;-4.222;2023-10-09T13:52:10;7.28;;;2.15;;
44430;SDS011;30135;47.866;-4.222;2023-10-09T13:54:43;5.47;;;1.38;;
44430;SDS011;30135;47.866;-4.222;2023-10-09T13:57:13;5.88;;;1.98;;
44430;SDS011;30135;47.866;-4.222;2023-10-09T13:59:40;7.18;;;1.45;;
44430;SDS011;30135;47.866;-4.222;2023-10-09T14:02:09;6.35;;;1.20;;
44430;SDS011;30135;47.866;-4.222;2023-10-09T14:04:41;9.63;;;1.85;;
44430;SDS011;30135;47.866;-4.222;2023-10-09T14:07:08;7.57;;;2.40;;
44430;SDS011;30135;47.866;-4.222;2023-10-09T14:09:35;4.40;;;1.45;;
44430;SDS011;30135;47.866;-4.222;2023-10-09T14:12:10;5.88;;;1.60;;
44430;SDS011;30135;47.866;-4.222;2023-10-09T14:14:40;6.32;;;1.65;;
44430;SDS011;30135;47.866;-4.222;2023-10-09T14:17:21;4.88;;;2.28;;
44430;SDS011;30135;47.866;-4.222;2023-10-09T14:19:53;6.65;;;2.45;;
44430;SDS011;30135;47.866;-4.222;2023-10-09T14:22:26;4.18;;;1.42;;
44430;SDS011;30135;47.866;-4.222;2023-10-09T14:24:52;5.50;;;1.10;;
44430;SDS011;30135;47.866;-4.222;2023-10-09T14:27:23;7.60;;;1.33;;
44430;SDS011;30135;47.866;-4.222;2023-10-09T14:29:54;4.30;;;1.40;;
44430;SDS011;30135;47.866;-4.222;2023-10-09T14:32:25;2.10;;;1.02;;
44430;SDS011;30135;47.866;-4.222;2023-10-09T14:34:59;3.45;;;1.10;;
44430;SDS011;30135;47.866;-4.222;2023-10-09T14:37:27;5.68;;;1.00;;
44430;SDS011;30135;47.866;-4.222;2023-10-09T14:39:55;3.03;;;1.17;;
44430;SDS011;30135;47.866;-4.222;2023-10-09T14:44:52;4.90;;;1.73;;
44430;SDS011;30135;47.866;-4.222;2023-10-09T14:47:20;3.88;;;1.50;;
44430;SDS011;30135;47.866;-4.222;2023-10-09T14:49:46;5.40;;;1.25;;
44430;SDS011;30135;47.866;-4.222;2023-10-09T14:52:14;2.83;;;1.38;;
44430;SDS011;30135;47.866;-4.222;2023-10-09T14:54:45;4.40;;;1.15;;
44430;SDS011;30135;47.866;-4.222;2023-10-09T14:57:12;2.92;;;1.05;;
44430;SDS011;30135;47.866;-4.222;2023-10-09T14:59:39;6.55;;;1.00;;
44430;SDS011;30135;47.866;-4.222;2023-10-09T15:02:05;3.67;;;1.33;;
44430;SDS011;30135;47.866;-4.222;2023-10-09T15:04:32;7.18;;;1.67;;
44430;SDS011;30135;47.866;-4.222;2023-10-09T15:07:02;13.02;;;1.33;;
44430;SDS011;30135;47.866;-4.222;2023-10-09T15:09:32;6.25;;;1.52;;
44430;SDS011;30135;47.866;-4.222;2023-10-09T15:12:01;7.72;;;1.23;;
44430;SDS011;30135;47.866;-4.222;2023-10-09T15:14:27;10.35;;;1.40;;
44430;SDS011;30135;47.866;-4.222;2023-10-09T15:16:53;10.40;;;1.65;;
44430;SDS011;30135;47.866;-4.222;2023-10-09T15:19:19;4.07;;;1.17;;
44430;SDS011;30135;47.866;-4.222;2023-10-09T15:21:54;4.57;;;1.20;;
44430;SDS011;30135;47.866;-4.222;2023-10-09T15:24:23;3.15;;;1.20;;
44430;SDS011;30135;47.866;-4.222;2023-10-09T15:26:52;4.05;;;1.02;;
44430;SDS011;30135;47.866;-4.222;2023-10-09T15:29:23;4.65;;;1.27;;
44430;SDS011;30135;47.866;-4.222;2023-10-09T15:31:55;4.70;;;1.42;;
44430;SDS011;30135;47.866;-4.222;2023-10-09T15:34:40;2.53;;;0.93;;
44430;SDS011;30135;47.866;-4.222;2023-10-09T15:37:07;3.47;;;0.70;;
44430;SDS011;30135;47.866;-4.222;2023-10-09T15:39:36;2.05;;;1.00;;
44430;SDS011;30135;47.866;-4.222;2023-10-09T15:42:03;2.97;;;1.02;;
44430;SDS011;30135;47.866;-4.222;2023-10-09T15:44:31;4.65;;;1.15;;
44430;SDS011;30135;47.866;-4.222;2023-10-09T15:47:02;7.53;;;1.33;;
44430;SDS011;30135;47.866;-4.222;2023-10-09T15:49:33;3.75;;;1.02;;
44430;SDS011;30135;47.866;-4.222;2023-10-09T15:52:03;2.30;;;0.70;;
44430;SDS011;30135;47.866;-4.222;2023-10-09T15:56:58;4.75;;;0.95;;
44430;SDS011;30135;47.866;-4.222;2023-10-09T15:59:24;2.80;;;0.98;;
44430;SDS011;30135;47.866;-4.222;2023-10-09T16:01:50;4.82;;;1.27;;
44430;SDS011;30135;47.866;-4.222;2023-10-09T16:04:18;2.67;;;1.05;;
44430;SDS011;30135;47.866;-4.222;2023-10-09T16:06:44;5.07;;;1.00;;